OITK  Khoy Airport

Add Bookmark

Khoy, Iran

Status IATA
Operational KHY
Latitude Longitude
38° 25' 39" N 44° 58' 24" E
38.427502 44.973598
Local (DST + 5) UTC (GMT + 4)
Oct 23, 2014 01:36 Oct 23, 2014 10:06
Sunrise-Sunset Local UTC
Begin Civil Twilight 06:18 02:48
Sunrise 06:45 03:15
Sunset 05:42 14:12
End Civil Twilight 06:09 14:39

Current Weather

METAR Observed VFR
OITK 230900Z 19010KT 9999 FEW040 BKN190 15/08 Q1021 Thu, Oct 23, 2014 @ 09:00 UTC
(1 Hour, 6 Minutes ago)
Visual Flight Rules
Wind Visibility Clouds Conditions
190° at 10 knots (19 kph) 10 km or more
  • Few at 4,000' AGL
  • Broken at 19,000' AGL
  • No significant weather
Temperatures Readings Precipitation
Current Temp 15°C (59°F)
Dewpoint 8°C (46°F)
Humidity 63%
Altimeter 30.15"Hg
Sea Level Pressure 1021mb
Field Elevation 3631.89'
None Recorded

Additional weather within a 92.6km radius of OITK

Map ICAO Location
OITR 84.8km S (174°)

24 Hour Weather History

Loading
-

24 Hour Weather Graphs

Loading
-

CheckWX.com is intended as a tool to help pilots better visualize weather data. It is not intended as a substitute for an official weather briefing obtained from a Flight Service Station. CheckWX.com does not meet the FAA requirements for an official pre-flight weather briefing. Therefore, it's important that pilots still call and obtain an official FSS pre-flight weather briefing.